Normed Antwerpen — V2DG9 — position and weather

sailwx.info

Track history (hours):
 
Tides and Currents Weather Stations Pressure Air Temp Water Temp Dewpoint Dewpoint Depression Visibility Wind Speed Wind Dir Waves Ship Positions

Normed Antwerpen

Last reported at 2014-Oct-12 13:04 UTC. Time now 2014-Oct-22 13:55 UTC.
Position N 32°51' E 034°37'.
Warning: this ship's position is 10 days out of date.

Length 130 m; draft 6.2 m.

Type: Ship. MMSI: 305210993.

Date/timePositionNaut miles runAvg speedWind from/ knotsBaromVisibWave heightAir tempDewpointWater temp
2014-Oct-12 13:04N 32°51' E 034°37'610.8
2014-Oct-12 12:31N 32°46' E 034°32'  
2014-Oct-09 20:27N 32°27' E 030°09'5313.6
2014-Oct-09 16:31N 33°01' E 030°58'4213.5
2014-Oct-09 13:23N 33°29' E 031°36'1113.5
2014-Oct-09 12:34N 33°35' E 031°47'1413.7
2014-Oct-09 11:31N 33°44' E 032°01'1313.7
2014-Oct-09 10:33N 33°51' E 032°14'1312.9
2014-Oct-09 09:34N 33°57' E 032°28'1813.9
2014-Oct-09 08:14N 34°06' E 032°47'1613.8
2014-Oct-09 07:07N 34°14' E 033°03'713.4
2014-Oct-09 06:33N 34°17' E 033°11'1413.4
2014-Oct-09 05:30N 34°24' E 033°26'3213.4
2014-Oct-09 03:08N 34°42' E 033°58'813.2
2014-Oct-09 02:31N 34°47' E 034°06'  
2014-Oct-06 16:11N 35°45' E 028°24'10813.4
2014-Oct-06 08:09N 36°10' E 026°14'913.8
2014-Oct-06 07:31N 36°10' E 026°03'1314.0
2014-Oct-06 06:33N 36°09' E 025°47'1413.7
2014-Oct-06 05:33N 36°08' E 025°30'1413.6
2014-Oct-06 04:33N 36°08' E 025°13'1313.5
2014-Oct-06 03:33N 36°07' E 024°56'1413.5
2014-Oct-06 02:33N 36°06' E 024°40'1413.6
2014-Oct-06 01:33N 36°05' E 024°23'  
Track history (hours):
 
Tides and Currents Weather Stations Pressure Air Temp Water Temp Dewpoint Dewpoint Depression Visibility Wind Speed Wind Dir Waves Ship Positions

Normed Antwerpen

Last reported at 2014-Oct-12 13:04 UTC. Time now 2014-Oct-22 13:55 UTC.
Position N 32°51' E 034°37'.
Warning: this ship's position is 10 days out of date.

Length 130 m; draft 6.2 m.

Type: Ship. MMSI: 305210993.

Date/timePositionNaut miles runAvg speedWind from/ knotsBaromVisibWave heightAir tempDewpointWater temp
2014-Oct-12 13:04N 32°51' E 034°37'610.8
2014-Oct-12 12:31N 32°46' E 034°32'  
2014-Oct-09 20:27N 32°27' E 030°09'5313.6
2014-Oct-09 16:31N 33°01' E 030°58'4213.5
2014-Oct-09 13:23N 33°29' E 031°36'1113.5
2014-Oct-09 12:34N 33°35' E 031°47'1413.7
2014-Oct-09 11:31N 33°44' E 032°01'1313.7
2014-Oct-09 10:33N 33°51' E 032°14'1312.9
2014-Oct-09 09:34N 33°57' E 032°28'1813.9
2014-Oct-09 08:14N 34°06' E 032°47'1613.8
2014-Oct-09 07:07N 34°14' E 033°03'713.4
2014-Oct-09 06:33N 34°17' E 033°11'1413.4
2014-Oct-09 05:30N 34°24' E 033°26'3213.4
2014-Oct-09 03:08N 34°42' E 033°58'813.2
2014-Oct-09 02:31N 34°47' E 034°06'  
2014-Oct-06 16:11N 35°45' E 028°24'10813.4
2014-Oct-06 08:09N 36°10' E 026°14'913.8
2014-Oct-06 07:31N 36°10' E 026°03'1314.0
2014-Oct-06 06:33N 36°09' E 025°47'1413.7
2014-Oct-06 05:33N 36°08' E 025°30'1413.6
2014-Oct-06 04:33N 36°08' E 025°13'1313.5
2014-Oct-06 03:33N 36°07' E 024°56'1413.5
2014-Oct-06 02:33N 36°06' E 024°40'1413.6
2014-Oct-06 01:33N 36°05' E 024°23'  

Dump ship's entire track history